Time;durP1;ratioP1;P1;durP2;ratioP2;P2;SDS_P1;SDS_P2;PMS_P1;PMS_P2;Temp;Humidity;BMP_temperature;BMP_pressure;BME280_temperature;BME280_humidity;BME280_pressure;Samples;Min_cycle;Max_cycle;Signal;HPM_P1;HPM_P2
2023/12/24 00:00:35;;;;;;;26.55;6.90;;;9.30;99.90;;;;;;7366242;19;20020;-75
2023/12/24 00:03:02;;;;;;;20.83;6.63;;;9.30;99.90;;;;;;7365924;19;20077;-75
2023/12/24 00:05:28;;;;;;;16.17;5.20;;;9.30;99.90;;;;;;7365280;19;20022;-65
2023/12/24 00:07:55;;;;;;;18.33;5.38;;;9.20;99.90;;;;;;7369518;19;20084;-65
2023/12/24 00:10:22;;;;;;;25.67;6.30;;;9.30;99.90;;;;;;7366084;19;20023;-75
2023/12/24 00:12:48;;;;;;;25.52;6.93;;;9.30;99.90;;;;;;7367160;19;20027;-76
2023/12/24 00:15:18;;;;;;;23.40;5.65;;;9.20;99.90;;;;;;7365687;19;20031;-65
2023/12/24 00:17:44;;;;;;;18.27;5.70;;;9.30;99.90;;;;;;7368927;19;20038;-64
2023/12/24 00:20:10;;;;;;;26.65;6.60;;;9.30;99.90;;;;;;7357173;19;20033;-65
2023/12/24 00:22:39;;;;;;;21.48;5.63;;;9.20;99.90;;;;;;7368110;19;20387;-76
2023/12/24 00:25:08;;;;;;;15.70;5.68;;;9.30;99.90;;;;;;7363442;19;20916;-76
2023/12/24 00:27:35;;;;;;;14.63;5.65;;;9.30;99.90;;;;;;7371199;19;20019;-65
2023/12/24 00:30:01;;;;;;;21.88;5.82;;;9.30;99.90;;;;;;7359920;19;20277;-65
2023/12/24 00:32:29;;;;;;;23.27;5.38;;;9.30;99.90;;;;;;7362835;19;20053;-65
2023/12/24 00:34:55;;;;;;;22.27;6.30;;;9.30;99.90;;;;;;7360899;19;20018;-65
2023/12/24 00:37:21;;;;;;;18.80;6.13;;;9.30;99.90;;;;;;7364826;19;20022;-65
2023/12/24 00:40:08;;;;;;;18.92;5.38;;;9.30;99.90;;;;;;7360534;19;20018;-65
2023/12/24 00:42:35;;;;;;;18.70;5.65;;;9.30;99.90;;;;;;7371317;19;20022;-65
2023/12/24 00:45:02;;;;;;;14.38;5.22;;;9.30;99.90;;;;;;7359864;19;20102;-65
2023/12/24 00:47:28;;;;;;;21.15;5.60;;;9.30;99.90;;;;;;7362413;19;20023;-65
2023/12/24 00:49:55;;;;;;;16.55;4.93;;;9.30;99.90;;;;;;7366069;19;20379;-65
2023/12/24 00:52:21;;;;;;;14.57;5.05;;;9.30;99.90;;;;;;7363335;19;20024;-65
2023/12/24 00:54:47;;;;;;;24.45;6.10;;;9.30;99.90;;;;;;7368085;19;20382;-76
2023/12/24 00:57:14;;;;;;;19.25;5.95;;;9.30;99.90;;;;;;7365582;19;20053;-65
2023/12/24 01:00:01;;;;;;;21.10;5.60;;;9.30;99.90;;;;;;7366398;19;20015;-65
2023/12/24 01:02:32;;;;;;;18.48;5.90;;;9.40;99.90;;;;;;7363657;19;20090;-76
2023/12/24 01:04:58;;;;;;;17.52;5.30;;;9.30;99.90;;;;;;7366510;19;20046;-65
2023/12/24 01:07:25;;;;;;;17.58;5.40;;;9.30;99.90;;;;;;7357274;19;20018;-77
2023/12/24 01:09:52;;;;;;;22.13;5.18;;;9.30;99.90;;;;;;7357016;19;20019;-65
2023/12/24 01:12:18;;;;;;;20.17;5.18;;;9.30;99.90;;;;;;7365376;19;20031;-65
2023/12/24 01:14:44;;;;;;;18.23;5.05;;;9.30;99.90;;;;;;7363491;19;20018;-75
2023/12/24 01:17:11;;;;;;;15.23;4.72;;;9.30;99.90;;;;;;7362536;19;20037;-76
2023/12/24 01:19:37;;;;;;;19.42;5.60;;;9.30;99.90;;;;;;7362619;19;20031;-75
2023/12/24 01:22:04;;;;;;;18.48;5.63;;;9.30;99.90;;;;;;7363534;19;20018;-65
2023/12/24 01:24:33;;;;;;;18.42;5.40;;;9.30;99.90;;;;;;7363799;19;20050;-65
2023/12/24 01:26:59;;;;;;;20.48;5.15;;;9.30;99.90;;;;;;7365700;19;20023;-65
2023/12/24 01:29:26;;;;;;;19.98;5.75;;;9.30;99.90;;;;;;7358255;19;20022;-65
2023/12/24 01:31:53;;;;;;;20.35;5.15;;;9.40;99.90;;;;;;7360528;19;20030;-65
2023/12/24 01:34:19;;;;;;;16.58;4.60;;;9.30;99.90;;;;;;7361260;19;20134;-75
2023/12/24 01:36:45;;;;;;;16.30;4.78;;;9.30;99.90;;;;;;7361892;19;20038;-75
2023/12/24 01:39:13;;;;;;;15.60;4.03;;;9.30;99.90;;;;;;7357278;19;20074;-75
2023/12/24 01:41:39;;;;;;;18.73;4.60;;;9.30;99.90;;;;;;7365958;19;20014;-75
2023/12/24 01:44:05;;;;;;;16.77;4.47;;;9.30;99.90;;;;;;7366845;19;20881;-75
2023/12/24 01:46:32;;;;;;;13.80;4.28;;;9.30;99.90;;;;;;7374191;19;20571;-64
2023/12/24 01:48:59;;;;;;;16.67;4.10;;;9.30;99.90;;;;;;7366925;19;20018;-65
2023/12/24 01:51:29;;;;;;;14.13;4.22;;;9.30;99.90;;;;;;7369584;19;20024;-64
2023/12/24 01:53:56;;;;;;;12.52;4.18;;;9.30;99.90;;;;;;7371602;19;20655;-65
2023/12/24 01:56:24;;;;;;;11.00;3.85;;;9.30;99.90;;;;;;7368200;19;20022;-65
2023/12/24 01:58:54;;;;;;;13.35;3.90;;;9.30;99.90;;;;;;7372730;19;20022;-75
2023/12/24 02:01:21;;;;;;;15.68;4.20;;;9.40;99.90;;;;;;7370341;19;20126;-75
2023/12/24 02:03:49;;;;;;;13.73;3.72;;;9.40;99.90;;;;;;7364567;19;20038;-75
2023/12/24 02:06:19;;;;;;;15.98;4.03;;;9.30;99.90;;;;;;7365593;19;20428;-75
2023/12/24 02:08:46;;;;;;;18.98;4.00;;;9.40;99.90;;;;;;7370693;19;20025;-75
2023/12/24 02:11:12;;;;;;;14.10;3.63;;;9.40;99.90;;;;;;7370637;19;20414;-76
2023/12/24 02:13:39;;;;;;;10.60;3.20;;;9.40;99.90;;;;;;7364562;19;20038;-75
2023/12/24 02:16:08;;;;;;;12.90;3.70;;;9.30;99.90;;;;;;7368500;19;20039;-75
2023/12/24 02:18:34;;;;;;;12.30;3.83;;;9.40;99.90;;;;;;7367688;19;20117;-75
2023/12/24 02:21:05;;;;;;;12.27;4.05;;;9.40;99.90;;;;;;7371032;19;20020;-75
2023/12/24 02:23:31;;;;;;;11.65;4.32;;;9.40;99.90;;;;;;7368560;19;20018;-65
2023/12/24 02:26:05;;;;;;;9.32;3.75;;;9.30;99.90;;;;;;7362859;19;20010;-66
2023/12/24 02:28:36;;;;;;;11.27;3.85;;;9.50;99.90;;;;;;7366221;19;20083;-65
2023/12/24 02:31:07;;;;;;;12.20;4.47;;;9.40;99.90;;;;;;7370805;19;20015;-65
2023/12/24 02:33:40;;;;;;;11.27;4.68;;;9.40;99.90;;;;;;7362688;19;20022;-76
2023/12/24 02:36:12;;;;;;;10.88;4.57;;;9.50;99.90;;;;;;7371487;19;20038;-75
2023/12/24 02:38:38;;;;;;;14.60;5.35;;;9.50;99.90;;;;;;7362911;19;20014;-76
2023/12/24 02:41:05;;;;;;;10.85;5.00;;;9.50;99.90;;;;;;7368567;19;20489;-75
2023/12/24 02:43:31;;;;;;;13.95;5.07;;;9.40;99.90;;;;;;7367142;19;20018;-76
2023/12/24 02:45:59;;;;;;;15.93;5.70;;;9.40;99.90;;;;;;7368659;19;20018;-76
2023/12/24 02:48:26;;;;;;;14.80;5.63;;;9.50;99.90;;;;;;7368855;19;20011;-76
2023/12/24 02:50:52;;;;;;;11.88;4.88;;;9.40;99.90;;;;;;7362890;19;20022;-77
2023/12/24 02:53:20;;;;;;;11.38;5.10;;;9.40;99.90;;;;;;7367177;19;20669;-77
2023/12/24 02:55:46;;;;;;;10.32;5.25;;;9.40;99.90;;;;;;7372169;19;20006;-76
2023/12/24 02:58:12;;;;;;;13.10;5.05;;;9.50;99.90;;;;;;7362477;19;20026;-78
2023/12/24 03:00:40;;;;;;;15.82;7.15;;;9.40;99.90;;;;;;7367534;19;20777;-65
2023/12/24 03:03:06;;;;;;;11.52;5.40;;;9.50;99.90;;;;;;7362058;19;20052;-65
2023/12/24 03:05:53;;;;;;;8.45;5.07;;;9.40;99.90;;;;;;7365822;19;20026;-65
2023/12/24 03:08:21;;;;;;;12.57;5.63;;;9.40;99.90;;;;;;7360360;19;20030;-66
2023/12/24 03:10:47;;;;;;;11.68;5.32;;;9.40;99.90;;;;;;7369197;19;20029;-65
2023/12/24 03:13:13;;;;;;;10.35;4.60;;;9.40;99.90;;;;;;7361669;19;20499;-66
2023/12/24 03:15:40;;;;;;;11.02;4.40;;;9.50;99.90;;;;;;7372668;19;20031;-65
2023/12/24 03:18:06;;;;;;;10.43;4.63;;;9.40;99.90;;;;;;7369267;19;20022;-75
2023/12/24 03:20:53;;;;;;;13.18;5.45;;;9.50;99.90;;;;;;7367962;19;20040;-76
2023/12/24 03:23:19;;;;;;;8.98;4.43;;;9.50;99.90;;;;;;7367432;19;20081;-75
2023/12/24 03:25:46;;;;;;;16.25;5.13;;;9.50;99.90;;;;;;7365772;19;20027;-76
2023/12/24 03:28:12;;;;;;;10.23;4.88;;;9.50;99.90;;;;;;7363054;19;20051;-75
2023/12/24 03:30:38;;;;;;;9.00;5.63;;;9.40;99.90;;;;;;7371360;19;20035;-75
2023/12/24 03:33:04;;;;;;;10.82;5.05;;;9.50;99.90;;;;;;7367792;19;20015;-75
2023/12/24 03:35:30;;;;;;;11.80;4.75;;;9.50;99.90;;;;;;7371343;19;20022;-75
2023/12/24 03:37:57;;;;;;;10.95;5.43;;;9.40;99.90;;;;;;7367589;19;20029;-76
2023/12/24 03:40:24;;;;;;;7.63;4.35;;;9.50;99.90;;;;;;7366425;19;20018;-76
2023/12/24 03:42:50;;;;;;;11.68;4.95;;;9.50;99.90;;;;;;7367654;19;20035;-76
2023/12/24 03:45:16;;;;;;;10.90;5.55;;;9.50;99.90;;;;;;7366799;19;20015;-76
2023/12/24 03:47:44;;;;;;;9.98;5.43;;;9.50;99.90;;;;;;7367893;19;20114;-77
2023/12/24 03:50:10;;;;;;;12.48;5.25;;;9.50;99.90;;;;;;7369209;19;20889;-66
2023/12/24 03:52:36;;;;;;;10.50;5.25;;;9.50;99.90;;;;;;7363607;19;20022;-65
2023/12/24 03:55:02;;;;;;;9.43;5.55;;;9.60;99.90;;;;;;7368060;19;20023;-66
2023/12/24 03:57:29;;;;;;;7.80;4.20;;;9.60;99.90;;;;;;7367059;19;20037;-65
2023/12/24 03:59:55;;;;;;;13.10;5.10;;;9.60;99.90;;;;;;7364612;19;20497;-66
2023/12/24 04:02:24;;;;;;;8.07;4.10;;;9.60;99.90;;;;;;7365157;19;20845;-66
2023/12/24 04:04:50;;;;;;;10.40;4.22;;;9.60;99.90;;;;;;7362892;19;20486;-76
2023/12/24 04:07:17;;;;;;;10.20;4.13;;;9.50;99.90;;;;;;7368898;19;20031;-76
2023/12/24 04:09:43;;;;;;;11.45;4.43;;;9.60;99.90;;;;;;7359960;19;20026;-76
2023/12/24 04:12:10;;;;;;;8.77;4.25;;;9.50;99.90;;;;;;7369618;19;20021;-76
2023/12/24 04:14:37;;;;;;;6.28;3.42;;;9.60;99.90;;;;;;7365801;19;20022;-65
2023/12/24 04:17:04;;;;;;;8.90;3.75;;;9.60;99.90;;;;;;7367294;19;20022;-76
2023/12/24 04:19:32;;;;;;;5.53;3.47;;;9.60;99.90;;;;;;7359516;19;20022;-76
2023/12/24 04:22:02;;;;;;;6.40;2.92;;;9.60;99.90;;;;;;7364196;19;20014;-77
2023/12/24 04:24:29;;;;;;;9.00;3.08;;;9.60;99.90;;;;;;7357753;19;20025;-65
2023/12/24 04:26:55;;;;;;;4.18;2.70;;;9.60;99.90;;;;;;7363660;19;20018;-65
2023/12/24 04:29:22;;;;;;;7.18;3.33;;;9.60;99.90;;;;;;7360423;19;20015;-65
2023/12/24 04:31:48;;;;;;;6.72;3.20;;;9.60;99.90;;;;;;7364964;19;20146;-65
2023/12/24 04:34:14;;;;;;;5.78;2.90;;;9.60;99.90;;;;;;7363277;19;20026;-66
2023/12/24 04:36:42;;;;;;;6.57;2.92;;;9.60;99.90;;;;;;7360311;19;20480;-66
2023/12/24 04:39:08;;;;;;;6.68;3.00;;;9.70;99.90;;;;;;7367522;19;20094;-66
2023/12/24 04:41:34;;;;;;;8.23;3.50;;;9.70;99.90;;;;;;7363619;19;20426;-66
2023/12/24 04:44:00;;;;;;;7.38;3.67;;;9.70;99.90;;;;;;7367839;19;20043;-65
2023/12/24 04:46:27;;;;;;;5.85;3.15;;;9.70;99.90;;;;;;7361320;19;20010;-65
2023/12/24 04:49:13;;;;;;;7.65;3.80;;;9.70;99.90;;;;;;7368136;19;20018;-65
2023/12/24 04:51:42;;;;;;;5.20;3.53;;;9.80;99.90;;;;;;7368751;19;20029;-65
2023/12/24 04:54:08;;;;;;;7.93;3.67;;;9.70;99.90;;;;;;7366705;19;20074;-65
2023/12/24 04:56:35;;;;;;;6.30;3.13;;;9.70;99.90;;;;;;7367604;19;20859;-66
2023/12/24 04:59:01;;;;;;;8.30;4.15;;;9.80;99.90;;;;;;7364961;19;20771;-66
2023/12/24 05:01:28;;;;;;;7.70;4.07;;;9.70;99.90;;;;;;7363944;19;21025;-65
2023/12/24 05:03:54;;;;;;;6.30;4.07;;;9.70;99.90;;;;;;7366965;19;20014;-65
2023/12/24 05:06:21;;;;;;;6.28;4.10;;;9.80;99.90;;;;;;7363566;19;20488;-66
2023/12/24 05:08:48;;;;;;;7.65;3.75;;;9.80;99.90;;;;;;7368081;19;20078;-65
2023/12/24 05:11:14;;;;;;;7.43;3.75;;;9.70;99.90;;;;;;7360767;19;20018;-65
2023/12/24 05:13:40;;;;;;;9.57;4.32;;;9.80;99.90;;;;;;7367716;19;20015;-65
2023/12/24 05:16:07;;;;;;;7.35;3.90;;;9.90;99.90;;;;;;7366438;19;20656;-66
2023/12/24 05:18:53;;;;;;;6.05;3.92;;;9.80;99.90;;;;;;7364582;19;20030;-66
2023/12/24 05:21:20;;;;;;;5.57;3.55;;;10.00;99.90;;;;;;7364417;19;20048;-66
2023/12/24 05:23:46;;;;;;;6.47;3.72;;;9.90;99.90;;;;;;7366065;19;20029;-76
2023/12/24 05:26:12;;;;;;;6.72;4.13;;;9.80;99.90;;;;;;7366356;19;20022;-76
2023/12/24 05:28:38;;;;;;;8.68;4.43;;;10.00;99.90;;;;;;7366970;19;20107;-76
2023/12/24 05:31:05;;;;;;;7.82;4.15;;;10.00;99.90;;;;;;7360305;19;20057;-75
2023/12/24 05:33:31;;;;;;;10.80;5.22;;;10.00;99.90;;;;;;7363006;19;20063;-76
2023/12/24 05:35:57;;;;;;;7.80;4.32;;;9.90;99.90;;;;;;7364265;19;20031;-75
2023/12/24 05:38:24;;;;;;;8.18;4.53;;;9.90;99.90;;;;;;7365463;19;20018;-66
2023/12/24 05:40:50;;;;;;;8.13;4.97;;;9.90;99.90;;;;;;7363443;19;20474;-66
2023/12/24 05:43:16;;;;;;;9.05;5.22;;;9.90;99.90;;;;;;7368025;19;20608;-66
2023/12/24 05:45:43;;;;;;;12.10;5.32;;;10.00;99.90;;;;;;7366249;19;20525;-66
2023/12/24 05:48:09;;;;;;;8.52;4.57;;;10.10;99.90;;;;;;7365851;19;20026;-75
2023/12/24 05:50:35;;;;;;;11.50;5.65;;;10.00;99.90;;;;;;7368394;19;20022;-75
2023/12/24 05:53:02;;;;;;;7.50;5.45;;;9.90;99.90;;;;;;7366049;19;20026;-66
2023/12/24 05:55:28;;;;;;;8.52;6.15;;;10.00;99.90;;;;;;7369812;19;20026;-75
2023/12/24 05:57:54;;;;;;;11.43;5.63;;;10.20;99.90;;;;;;7367164;19;20022;-66
2023/12/24 06:00:20;;;;;;;10.60;6.88;;;10.20;99.90;;;;;;7368534;19;20517;-66
2023/12/24 06:02:47;;;;;;;10.57;6.28;;;10.20;99.90;;;;;;7363340;19;20015;-75
2023/12/24 06:05:13;;;;;;;10.05;6.00;;;10.10;99.90;;;;;;7363931;19;20110;-66
2023/12/24 06:07:39;;;;;;;15.02;7.22;;;10.20;99.90;;;;;;7366363;19;20417;-66
2023/12/24 06:10:07;;;;;;;15.18;7.38;;;10.00;99.90;;;;;;7362492;19;20026;-66
2023/12/24 06:12:34;;;;;;;12.20;7.82;;;10.20;99.90;;;;;;7364573;19;20018;-66
2023/12/24 06:15:01;;;;;;;15.15;8.10;;;10.20;99.90;;;;;;7365858;19;20019;-75
2023/12/24 06:17:27;;;;;;;12.50;7.80;;;10.20;99.90;;;;;;7366423;19;20506;-75
2023/12/24 06:19:54;;;;;;;17.65;8.45;;;10.30;99.90;;;;;;7366047;19;20063;-75
2023/12/24 06:22:20;;;;;;;17.23;8.30;;;10.30;99.90;;;;;;7364338;19;20019;-76
2023/12/24 06:24:46;;;;;;;18.20;8.52;;;10.30;99.90;;;;;;7363460;19;20022;-75
2023/12/24 06:27:12;;;;;;;17.05;8.82;;;10.20;99.90;;;;;;7365994;19;20030;-76
2023/12/24 06:29:39;;;;;;;18.15;9.57;;;10.40;99.90;;;;;;7369871;19;20037;-75
2023/12/24 06:32:05;;;;;;;19.05;8.75;;;10.20;99.90;;;;;;7368944;19;20014;-76
2023/12/24 06:34:31;;;;;;;16.52;9.65;;;10.30;99.90;;;;;;7372639;19;20428;-75
2023/12/24 06:36:57;;;;;;;20.13;9.38;;;10.20;99.90;;;;;;7371722;19;20015;-75
2023/12/24 06:39:24;;;;;;;16.92;9.18;;;10.50;99.90;;;;;;7371073;19;20113;-76
2023/12/24 06:41:50;;;;;;;20.60;9.90;;;10.20;99.90;;;;;;7371124;19;20623;-66
2023/12/24 06:44:17;;;;;;;20.63;10.35;;;10.50;99.90;;;;;;7373658;19;20018;-76
2023/12/24 06:46:43;;;;;;;22.55;11.05;;;10.20;99.90;;;;;;7374961;19;20018;-76
2023/12/24 06:49:09;;;;;;;28.08;10.65;;;10.20;99.90;;;;;;7374401;19;20026;-77
2023/12/24 06:51:36;;;;;;;25.80;11.80;;;10.40;99.90;;;;;;7376647;19;20019;-67
2023/12/24 06:54:02;;;;;;;23.85;11.85;;;10.30;99.90;;;;;;7374989;19;20015;-77
2023/12/24 06:56:28;;;;;;;24.95;11.50;;;10.60;99.90;;;;;;7376183;19;20098;-77
2023/12/24 06:58:54;;;;;;;30.17;12.55;;;10.50;99.90;;;;;;7378004;19;20462;-77
2023/12/24 07:01:21;;;;;;;30.35;11.30;;;10.30;99.90;;;;;;7375332;19;20483;-76
2023/12/24 07:03:47;;;;;;;26.02;11.32;;;10.60;99.90;;;;;;7376842;19;20018;-76
2023/12/24 07:06:13;;;;;;;26.13;11.77;;;10.50;99.90;;;;;;7372533;19;20014;-76
2023/12/24 07:08:39;;;;;;;28.98;12.10;;;10.30;99.90;;;;;;7377885;19;20018;-76
2023/12/24 07:11:29;;;;;;;30.38;11.68;;;10.40;99.90;;;;;;7370979;19;20122;-76
2023/12/24 07:13:55;;;;;;;31.05;12.05;;;10.30;99.90;;;;;;7372619;19;20070;-76
2023/12/24 07:16:23;;;;;;;23.40;13.30;;;10.30;99.90;;;;;;7370677;19;20019;-77
2023/12/24 07:19:09;;;;;;;27.77;12.68;;;10.60;99.90;;;;;;7367135;19;20018;-76
2023/12/24 07:21:35;;;;;;;30.35;12.93;;;10.60;99.90;;;;;;7370112;19;20015;-77
2023/12/24 07:24:03;;;;;;;32.10;13.45;;;10.60;99.90;;;;;;7372390;19;20019;-77
2023/12/24 07:26:29;;;;;;;26.90;12.27;;;10.40;99.90;;;;;;7375505;19;20113;-77
2023/12/24 07:28:57;;;;;;;22.40;10.10;;;10.30;99.90;;;;;;7371100;19;20023;-75
2023/12/24 07:31:23;;;;;;;21.95;10.65;;;10.70;99.90;;;;;;7371110;19;20022;-66
2023/12/24 07:33:49;;;;;;;27.77;11.93;;;10.60;99.90;;;;;;7373683;19;20446;-67
2023/12/24 07:36:15;;;;;;;26.13;11.18;;;10.60;99.90;;;;;;7369114;19;20018;-66
2023/12/24 07:38:42;;;;;;;28.13;12.50;;;10.70;99.90;;;;;;7369142;19;20028;-67
2023/12/24 07:41:08;;;;;;;28.95;14.32;;;10.80;99.90;;;;;;7370655;19;20112;-67
2023/12/24 07:43:34;;;;;;;23.58;11.55;;;10.50;99.90;;;;;;7374465;19;20021;-66
2023/12/24 07:46:00;;;;;;;27.70;11.80;;;10.60;99.90;;;;;;7358964;19;20018;-66
2023/12/24 07:48:27;;;;;;;23.30;10.95;;;10.70;99.90;;;;;;7351328;19;20032;-66
2023/12/24 07:50:53;;;;;;;28.45;10.68;;;10.70;99.90;;;;;;7372297;19;20033;-67
2023/12/24 07:53:19;;;;;;;28.45;12.70;;;10.60;99.90;;;;;;7371380;19;20014;-68
2023/12/24 07:55:46;;;;;;;32.22;11.57;;;10.60;99.90;;;;;;7370742;19;20026;-69
2023/12/24 07:58:12;;;;;;;26.95;10.05;;;10.60;99.90;;;;;;7370959;19;20025;-65
2023/12/24 08:00:38;;;;;;;27.35;11.57;;;10.90;99.90;;;;;;7372459;19;20019;-78
2023/12/24 08:03:05;;;;;;;37.08;15.52;;;10.80;99.90;;;;;;7371017;19;20621;-78
2023/12/24 08:05:31;;;;;;;36.92;12.00;;;10.80;99.90;;;;;;7372650;19;20019;-78
2023/12/24 08:08:18;;;;;;;31.02;11.45;;;10.90;99.90;;;;;;7376668;19;20019;-79
2023/12/24 08:10:44;;;;;;;28.80;11.70;;;10.90;99.90;;;;;;7374974;19;20674;-79
2023/12/24 08:13:12;;;;;;;27.35;11.32;;;10.80;99.90;;;;;;7371819;19;20022;-78
2023/12/24 08:15:38;;;;;;;33.35;11.98;;;10.90;99.90;;;;;;7371478;19;20022;-67
2023/12/24 08:18:04;;;;;;;31.92;10.63;;;10.80;99.90;;;;;;7371056;19;20014;-68
2023/12/24 08:20:30;;;;;;;25.83;10.00;;;10.80;99.90;;;;;;7370123;19;20026;-79
2023/12/24 08:22:57;;;;;;;29.50;10.43;;;10.70;99.90;;;;;;7374112;19;20018;-73
2023/12/24 08:25:23;;;;;;;23.13;10.05;;;11.00;99.90;;;;;;7371415;19;20011;-78
2023/12/24 08:27:49;;;;;;;32.30;9.02;;;11.00;99.90;;;;;;7375642;19;20481;-79
2023/12/24 08:30:15;;;;;;;29.75;10.23;;;11.00;99.90;;;;;;7376149;19;20022;-77
2023/12/24 08:32:42;;;;;;;31.35;10.70;;;11.00;99.90;;;;;;7375605;19;20025;-79
2023/12/24 08:35:08;;;;;;;25.00;10.27;;;10.90;99.90;;;;;;7374522;19;20019;-79
2023/12/24 08:37:35;;;;;;;31.50;11.32;;;11.10;99.90;;;;;;7377434;19;20024;-79
2023/12/24 08:40:02;;;;;;;35.00;12.50;;;10.70;99.90;;;;;;7377014;19;20606;-79
2023/12/24 08:42:28;;;;;;;25.45;9.35;;;10.80;99.90;;;;;;7375136;19;20023;-79
2023/12/24 08:44:54;;;;;;;28.15;9.45;;;10.90;99.90;;;;;;7375772;19;20022;-78
2023/12/24 08:47:20;;;;;;;28.92;9.40;;;11.10;99.90;;;;;;7377104;19;20018;-78
2023/12/24 08:49:46;;;;;;;28.17;9.88;;;10.90;99.90;;;;;;7376743;19;20053;-78
2023/12/24 08:52:13;;;;;;;28.42;9.77;;;10.80;99.90;;;;;;7372242;19;20011;-78
2023/12/24 08:54:39;;;;;;;31.90;10.00;;;11.10;99.90;;;;;;7375581;19;20038;-79
2023/12/24 08:57:07;;;;;;;25.67;9.10;;;10.90;99.90;;;;;;7363779;19;20542;-78
2023/12/24 08:59:33;;;;;;;30.77;9.88;;;11.10;99.90;;;;;;7371545;19;20036;-78
2023/12/24 09:02:00;;;;;;;24.08;8.20;;;11.10;99.90;;;;;;7367133;19;20022;-67
2023/12/24 09:04:26;;;;;;;25.08;7.43;;;10.80;99.90;;;;;;7365065;19;20026;-69
2023/12/24 09:06:52;;;;;;;32.05;8.70;;;10.90;99.90;;;;;;7365994;19;20019;-68
2023/12/24 09:09:18;;;;;;;25.02;8.18;;;11.10;99.90;;;;;;7366345;19;20067;-71
2023/12/24 09:12:05;;;;;;;26.95;7.32;;;10.90;99.90;;;;;;7360729;19;20026;-72
2023/12/24 09:14:32;;;;;;;24.02;7.95;;;11.20;99.90;;;;;;7364682;19;20482;-71
2023/12/24 09:16:59;;;;;;;23.20;7.25;;;11.30;99.90;;;;;;7365381;19;20022;-71
2023/12/24 09:19:25;;;;;;;21.70;7.30;;;11.10;99.90;;;;;;7368709;19;20022;-71
2023/12/24 09:21:51;;;;;;;29.88;8.55;;;11.10;99.90;;;;;;7371939;19;20033;-71
2023/12/24 09:24:18;;;;;;;24.50;8.05;;;11.20;99.90;;;;;;7366650;19;20018;-72
2023/12/24 09:26:44;;;;;;;22.38;7.35;;;11.00;99.90;;;;;;7373534;19;20542;-71
2023/12/24 09:29:11;;;;;;;27.88;8.75;;;11.10;99.90;;;;;;7361320;19;20025;-72
2023/12/24 09:31:39;;;;;;;21.42;7.40;;;11.10;99.90;;;;;;7369001;19;20528;-71
2023/12/24 09:34:08;;;;;;;19.58;7.13;;;11.20;99.90;;;;;;7366963;19;20048;-71
2023/12/24 09:36:34;;;;;;;22.85;7.45;;;11.20;99.90;;;;;;7367362;19;20011;-69
2023/12/24 09:39:00;;;;;;;20.23;7.43;;;11.30;99.90;;;;;;7362435;19;20415;-73
2023/12/24 09:41:26;;;;;;;25.13;7.78;;;11.30;99.90;;;;;;7366908;19;20049;-68
2023/12/24 09:43:53;;;;;;;22.25;8.32;;;11.20;99.90;;;;;;7362967;19;20102;-76
2023/12/24 09:46:19;;;;;;;25.98;7.80;;;11.20;99.90;;;;;;7366175;19;20041;-74
2023/12/24 09:48:45;;;;;;;22.35;7.47;;;11.20;99.90;;;;;;7361616;19;20022;-67
2023/12/24 09:51:15;;;;;;;24.83;6.72;;;11.40;99.90;;;;;;7366225;19;20376;-76
2023/12/24 09:54:02;;;;;;;18.25;6.32;;;11.20;99.90;;;;;;7359793;19;20018;-76
2023/12/24 09:56:28;;;;;;;22.42;6.97;;;11.20;99.90;;;;;;7364179;19;20819;-76
2023/12/24 09:58:54;;;;;;;16.55;5.38;;;11.50;99.90;;;;;;7363361;19;20633;-76
2023/12/24 10:01:20;;;;;;;16.83;5.07;;;11.50;99.90;;;;;;7369577;19;20026;-76
2023/12/24 10:03:46;;;;;;;19.80;5.05;;;11.40;99.90;;;;;;7374211;19;20029;-76
2023/12/24 10:06:50;;;;;;;17.92;4.97;;;11.50;99.90;;;;;;7368055;19;20034;-67
2023/12/24 10:09:16;;;;;;;16.75;5.35;;;11.50;99.90;;;;;;7371420;19;20825;-76
2023/12/24 10:11:42;;;;;;;23.30;5.65;;;11.50;99.90;;;;;;7366241;19;20026;-76
2023/12/24 10:14:09;;;;;;;19.33;5.10;;;11.30;99.90;;;;;;7372308;19;20022;-77
2023/12/24 10:16:56;;;;;;;15.18;4.38;;;11.40;99.90;;;;;;7370585;19;20021;-76
2023/12/24 10:19:24;;;;;;;16.50;5.10;;;11.40;99.90;;;;;;7371657;19;20842;-77
2023/12/24 10:22:02;;;;;;;17.20;4.50;;;11.50;99.90;;;;;;7371725;19;20018;-76
2023/12/24 10:24:31;;;;;;;16.92;4.75;;;11.50;99.90;;;;;;7365584;19;20425;-67
2023/12/24 10:27:14;;;;;;;22.20;4.82;;;11.50;99.90;;;;;;7366911;19;20090;-67
2023/12/24 10:29:42;;;;;;;16.73;4.70;;;11.50;99.90;;;;;;7367575;19;20611;-77
2023/12/24 10:32:10;;;;;;;17.20;5.05;;;11.70;99.90;;;;;;7372292;19;20030;-77
2023/12/24 10:34:37;;;;;;;20.90;5.13;;;11.60;99.90;;;;;;7369226;19;20021;-68
2023/12/24 10:37:17;;;;;;;18.85;5.80;;;11.70;99.90;;;;;;7369308;19;20027;-68
2023/12/24 10:39:44;;;;;;;17.67;4.90;;;11.50;99.90;;;;;;7367683;19;20086;-67
2023/12/24 10:42:10;;;;;;;21.98;7.05;;;11.70;99.90;;;;;;7368466;19;20027;-67
2023/12/24 10:44:39;;;;;;;20.33;5.05;;;11.60;99.90;;;;;;7369676;19;20050;-77
2023/12/24 10:47:05;;;;;;;15.98;4.72;;;11.60;99.90;;;;;;7370879;19;20035;-67
2023/12/24 10:49:34;;;;;;;19.63;4.43;;;11.60;99.90;;;;;;7368855;19;20026;-66
2023/12/24 10:52:00;;;;;;;17.50;4.00;;;11.80;99.90;;;;;;7367023;19;20026;-67
2023/12/24 10:54:27;;;;;;;14.18;3.90;;;11.80;99.90;;;;;;7364315;19;20993;-76
2023/12/24 10:57:04;;;;;;;15.57;3.97;;;11.70;99.90;;;;;;7361453;19;20022;-76
2023/12/24 10:59:43;;;;;;;15.55;3.45;;;11.70;99.90;;;;;;7367532;19;20025;-77
2023/12/24 11:02:13;;;;;;;18.52;4.25;;;11.80;99.90;;;;;;7369509;19;20029;-77
2023/12/24 11:04:48;;;;;;;20.50;4.43;;;11.70;99.90;;;;;;7372109;19;20482;-77
2023/12/24 11:07:50;;;;;;;21.75;4.57;;;11.70;99.90;;;;;;7369948;19;20015;-77
2023/12/24 11:10:39;;;;;;;16.48;5.20;;;11.80;99.90;;;;;;7365096;19;20391;-77
2023/12/24 11:13:34;;;;;;;16.88;3.78;;;11.80;99.90;;;;;;7364745;19;20011;-67
2023/12/24 11:16:04;;;;;;;18.60;4.35;;;11.90;99.90;;;;;;7372297;19;20049;-67
2023/12/24 11:18:46;;;;;;;21.30;4.53;;;11.80;99.90;;;;;;7369603;19;20093;-67
2023/12/24 11:21:14;;;;;;;13.75;3.78;;;11.80;99.90;;;;;;7368999;19;20446;-65
2023/12/24 11:23:59;;;;;;;17.27;4.15;;;11.90;99.90;;;;;;7368028;19;20710;-77
2023/12/24 11:26:33;;;;;;;16.63;6.53;;;11.80;99.90;;;;;;7368757;19;20026;-77
2023/12/24 11:29:00;;;;;;;13.43;4.25;;;11.90;99.90;;;;;;7374786;19;20105;-77
2023/12/24 11:31:28;;;;;;;15.05;3.75;;;11.90;99.90;;;;;;7365789;19;20639;-67
2023/12/24 11:33:55;;;;;;;14.65;4.28;;;11.90;99.90;;;;;;7361351;19;20019;-66
2023/12/24 11:36:24;;;;;;;16.50;4.05;;;11.80;99.90;;;;;;7363804;19;20089;-66
2023/12/24 11:38:58;;;;;;;18.13;4.03;;;11.90;99.90;;;;;;7367768;19;20015;-66
2023/12/24 11:41:25;;;;;;;14.77;3.60;;;11.90;99.90;;;;;;7366433;19;20507;-66
2023/12/24 11:44:09;;;;;;;12.57;3.10;;;11.90;99.90;;;;;;7369591;19;20014;-67
2023/12/24 11:46:37;;;;;;;14.98;3.45;;;11.90;99.90;;;;;;7371020;19;20021;-66
2023/12/24 11:49:06;;;;;;;11.35;3.50;;;12.00;99.90;;;;;;7371646;19;20014;-66
2023/12/24 11:51:32;;;;;;;15.38;3.60;;;12.00;99.90;;;;;;7370624;19;20016;-67
2023/12/24 11:54:00;;;;;;;15.98;3.17;;;12.00;99.90;;;;;;7368413;19;20077;-66
2023/12/24 11:56:29;;;;;;;15.95;4.20;;;12.10;99.90;;;;;;7367517;19;20018;-66
2023/12/24 11:58:55;;;;;;;19.25;4.00;;;12.10;99.90;;;;;;7368645;19;20730;-77
2023/12/24 12:01:26;;;;;;;16.55;5.35;;;12.10;99.90;;;;;;7370101;19;20030;-77
2023/12/24 12:04:04;;;;;;;14.27;3.50;;;12.20;99.90;;;;;;7370361;19;20508;-77
2023/12/24 12:06:35;;;;;;;18.08;5.03;;;12.20;99.90;;;;;;7364987;19;20932;-77
2023/12/24 12:09:06;;;;;;;16.87;4.43;;;12.20;99.90;;;;;;7367223;19;20517;-77
2023/12/24 12:11:32;;;;;;;16.63;5.97;;;12.20;99.90;;;;;;7361747;19;20110;-66
2023/12/24 12:14:02;;;;;;;16.17;3.83;;;12.20;99.90;;;;;;7362593;19;20014;-67
2023/12/24 12:16:28;;;;;;;15.27;5.07;;;12.20;99.90;;;;;;7359120;19;20018;-67
2023/12/24 12:18:57;;;;;;;14.38;4.38;;;12.30;99.90;;;;;;7362959;19;20018;-67
2023/12/24 12:21:23;;;;;;;13.57;4.32;;;12.20;99.90;;;;;;7365322;19;20018;-75
2023/12/24 12:23:49;;;;;;;17.98;7.07;;;12.30;99.90;;;;;;7365690;19;20023;-75
2023/12/24 12:26:16;;;;;;;11.18;3.95;;;12.30;99.90;;;;;;7365818;19;21856;-66
2023/12/24 12:28:42;;;;;;;18.27;4.35;;;12.30;99.90;;;;;;7368802;19;20015;-66
2023/12/24 12:31:09;;;;;;;15.38;3.95;;;12.30;99.90;;;;;;7370854;19;20022;-66
2023/12/24 12:33:55;;;;;;;20.02;5.90;;;12.30;99.90;;;;;;7370039;19;20006;-66
2023/12/24 12:36:21;;;;;;;13.02;4.43;;;12.20;99.90;;;;;;7367761;19;20627;-66
2023/12/24 12:38:48;;;;;;;15.73;5.05;;;12.20;99.90;;;;;;7366799;19;20110;-75
2023/12/24 12:41:14;;;;;;;18.98;5.15;;;12.20;99.90;;;;;;7370081;19;20504;-74
2023/12/24 12:43:43;;;;;;;15.68;3.75;;;12.20;99.90;;;;;;7372913;19;20021;-77
2023/12/24 12:46:10;;;;;;;16.10;4.40;;;12.20;99.90;;;;;;7368564;19;20830;-75